VOE223 LFRB-LICJ
Flight info
| Callsign | VOE223 |
|---|---|
| Flight time | N/A |
| Altitude | 35000 |
| Route | ROSPO DCT BAGAD H34 NTS R66 BETOB G54 POI R66 RISUN V18 TIS R31 MTL A3 PERUS G374 XAMAL M623 EBORA P856 DIVUL G374 SODRI A3 MIRSA L127 ELB L12 GIANO |
| Aircraft | A320/M-SDE3FGHIRWY/LB1 |
Departure
| Time | 2026-04-17 09:28 |
|---|---|
| Airport | Brest Bretagne airport (LFRB) |
Arrival
| Time | N/A |
|---|---|
| Airport | Falcone–Borsellino Airport (LICJ) |
| Time | Latitude | Longitude | Altitude | Speed | Heading |
|---|---|---|---|---|---|
| 2026-04-17 09:08 | 48.44424 | -4.42035 | 332 ft | 0 kts | 161° |
| 2026-04-17 09:18 | 48.44428 | -4.42037 | 327 ft | 3 kts | 161° |
| 2026-04-17 09:18 | 48.44454 | -4.42047 | 330 ft | 4 kts | 172° |
| 2026-04-17 09:18 | 48.44481 | -4.42049 | 329 ft | 4 kts | 188° |
| 2026-04-17 09:18 | 48.44505 | -4.42037 | 329 ft | 4 kts | 223° |
| 2026-04-17 09:19 | 48.44513 | -4.42022 | 330 ft | 0 kts | 251° |
| 2026-04-17 09:22 | 48.44510 | -4.42037 | 328 ft | 4 kts | 252° |
| 2026-04-17 09:23 | 48.44520 | -4.42075 | 328 ft | 4 kts | 316° |
| 2026-04-17 09:23 | 48.44552 | -4.42094 | 329 ft | 6 kts | 340° |
| 2026-04-17 09:23 | 48.44584 | -4.42111 | 330 ft | 4 kts | 340° |
| 2026-04-17 09:23 | 48.44616 | -4.42127 | 331 ft | 8 kts | 342° |
| 2026-04-17 09:24 | 48.44668 | -4.42153 | 331 ft | 8 kts | 343° |
| 2026-04-17 09:24 | 48.44721 | -4.42122 | 327 ft | 9 kts | 52° |
| 2026-04-17 09:24 | 48.44740 | -4.42054 | 331 ft | 7 kts | 70° |
| 2026-04-17 09:24 | 48.44761 | -4.41959 | 333 ft | 13 kts | 72° |
| 2026-04-17 09:25 | 48.44804 | -4.41771 | 333 ft | 25 kts | 71° |
| 2026-04-17 09:25 | 48.44875 | -4.41452 | 328 ft | 37 kts | 71° |
| 2026-04-17 09:25 | 48.44963 | -4.41066 | 321 ft | 40 kts | 71° |
| 2026-04-17 09:25 | 48.45051 | -4.40678 | 323 ft | 37 kts | 71° |
| 2026-04-17 09:26 | 48.45130 | -4.40326 | 317 ft | 35 kts | 71° |
| 2026-04-17 09:26 | 48.45203 | -4.40002 | 315 ft | 21 kts | 76° |
| 2026-04-17 09:26 | 48.45194 | -4.39908 | 317 ft | 5 kts | 42° |
| 2026-04-17 09:26 | 48.45212 | -4.39926 | 316 ft | 3 kts | 297° |
| 2026-04-17 09:27 | 48.45209 | -4.39984 | 313 ft | 9 kts | 250° |
| 2026-04-17 09:27 | 48.45182 | -4.40100 | 313 ft | 15 kts | 251° |
| 2026-04-17 09:27 | 48.45145 | -4.40267 | 315 ft | 21 kts | 251° |
| 2026-04-17 09:27 | 48.45032 | -4.40766 | 323 ft | 83 kts | 251° |
| 2026-04-17 09:28 | 48.44783 | -4.41871 | 336 ft | 138 kts | 250° |
| 2026-04-17 09:28 | 48.44488 | -4.43336 | 843 ft | 138 kts | 251° |
| 2026-04-17 09:28 | 48.44252 | -4.44634 | 1651 ft | 117 kts | 245° |
| 2026-04-17 09:28 | 48.43996 | -4.45801 | 2061 ft | 130 kts | 246° |
| 2026-04-17 09:29 | 48.43660 | -4.47198 | 2220 ft | 158 kts | 246° |
| 2026-04-17 09:29 | 48.43247 | -4.48888 | 2389 ft | 183 kts | 247° |
| 2026-04-17 09:29 | 48.42800 | -4.50756 | 2916 ft | 192 kts | 248° |
| 2026-04-17 09:29 | 48.42505 | -4.52737 | 3588 ft | 201 kts | 272° |
| 2026-04-17 09:30 | 48.43132 | -4.54654 | 4204 ft | 218 kts | 315° |
| 2026-04-17 09:30 | 48.44562 | -4.55522 | 4843 ft | 233 kts | 358° |
| 2026-04-17 09:30 | 48.46106 | -4.54797 | 5481 ft | 240 kts | 37° |
| 2026-04-17 09:30 | 48.47289 | -4.53009 | 6175 ft | 241 kts | 52° |
| 2026-04-17 09:31 | 48.48262 | -4.50946 | 6858 ft | 244 kts | 56° |
| 2026-04-17 09:31 | 48.49201 | -4.48791 | 7455 ft | 248 kts | 59° |
| 2026-04-17 09:31 | 48.49720 | -4.46333 | 8026 ft | 249 kts | 91° |
| 2026-04-17 09:31 | 48.49423 | -4.43776 | 8641 ft | 254 kts | 118° |
| 2026-04-17 09:32 | 48.48348 | -4.41613 | 9071 ft | 267 kts | 144° |
| 2026-04-17 09:32 | 48.46867 | -4.39728 | 9480 ft | 287 kts | 145° |
| 2026-04-17 09:32 | 48.45343 | -4.37786 | 10125 ft | 293 kts | 145° |
| 2026-04-17 09:32 | 48.43756 | -4.35755 | 10555 ft | 310 kts | 145° |
| 2026-04-17 09:33 | 48.42046 | -4.33570 | 10802 ft | 334 kts | 145° |
| 2026-04-17 09:33 | 48.40216 | -4.31226 | 10974 ft | 358 kts | 144° |
| 2026-04-17 09:33 | 48.38275 | -4.28724 | 11294 ft | 373 kts | 144° |
| 2026-04-17 09:33 | 48.36292 | -4.26161 | 11837 ft | 379 kts | 144° |
| 2026-04-17 09:34 | 48.34281 | -4.23564 | 12435 ft | 383 kts | 144° |
| 2026-04-17 09:34 | 48.32244 | -4.20938 | 13062 ft | 387 kts | 145° |
| 2026-04-17 09:34 | 48.30188 | -4.18293 | 13668 ft | 391 kts | 145° |
| 2026-04-17 09:34 | 48.28108 | -4.15631 | 14249 ft | 395 kts | 145° |
| 2026-04-17 09:35 | 48.26006 | -4.12952 | 14813 ft | 398 kts | 145° |
| 2026-04-17 09:35 | 48.23912 | -4.10287 | 15381 ft | 400 kts | 145° |
| 2026-04-17 09:35 | 48.21780 | -4.07574 | 15963 ft | 403 kts | 145° |
| 2026-04-17 09:35 | 48.19634 | -4.04838 | 16555 ft | 406 kts | 145° |
| 2026-04-17 09:36 | 48.17472 | -4.02078 | 17130 ft | 409 kts | 145° |
| 2026-04-17 09:36 | 48.15304 | -3.99310 | 17681 ft | 411 kts | 145° |
| 2026-04-17 09:36 | 48.13117 | -3.96521 | 18231 ft | 415 kts | 145° |
| 2026-04-17 09:36 | 48.10910 | -3.93715 | 18734 ft | 417 kts | 145° |
| 2026-04-17 09:37 | 48.08689 | -3.90905 | 19196 ft | 420 kts | 145° |
| 2026-04-17 09:37 | 48.06452 | -3.88077 | 19649 ft | 422 kts | 145° |
| 2026-04-17 09:37 | 48.04200 | -3.85235 | 20098 ft | 425 kts | 145° |
| 2026-04-17 09:37 | 48.01938 | -3.82382 | 20532 ft | 427 kts | 145° |
| 2026-04-17 09:38 | 47.99656 | -3.79504 | 20926 ft | 430 kts | 145° |
| 2026-04-17 09:38 | 47.97383 | -3.76563 | 21341 ft | 435 kts | 141° |
| 2026-04-17 09:38 | 47.95366 | -3.73154 | 21738 ft | 444 kts | 131° |
| 2026-04-17 09:38 | 47.93677 | -3.69321 | 22103 ft | 449 kts | 127° |
| 2026-04-17 09:39 | 47.92003 | -3.65380 | 22484 ft | 451 kts | 127° |
| 2026-04-17 09:39 | 47.90311 | -3.61423 | 22868 ft | 453 kts | 127° |
| 2026-04-17 09:39 | 47.88607 | -3.57462 | 23227 ft | 455 kts | 127° |
| 2026-04-17 09:39 | 47.86865 | -3.53432 | 23597 ft | 458 kts | 127° |
| 2026-04-17 09:40 | 47.85135 | -3.49445 | 23928 ft | 460 kts | 127° |
| 2026-04-17 09:40 | 47.83417 | -3.45491 | 24230 ft | 461 kts | 127° |
| 2026-04-17 09:40 | 47.81677 | -3.41485 | 24539 ft | 463 kts | 127° |
| 2026-04-17 09:40 | 47.79927 | -3.37452 | 24851 ft | 464 kts | 127° |
| 2026-04-17 09:41 | 47.78172 | -3.33408 | 25124 ft | 465 kts | 127° |
| 2026-04-17 09:41 | 47.76411 | -3.29357 | 25416 ft | 467 kts | 127° |
| 2026-04-17 09:41 | 47.74645 | -3.25301 | 25670 ft | 468 kts | 127° |
| 2026-04-17 09:41 | 47.72868 | -3.21225 | 25927 ft | 470 kts | 127° |
| 2026-04-17 09:42 | 47.71091 | -3.17153 | 26186 ft | 471 kts | 127° |
| 2026-04-17 09:42 | 47.69305 | -3.13065 | 26443 ft | 472 kts | 127° |
| 2026-04-17 09:42 | 47.67514 | -3.08972 | 26688 ft | 474 kts | 127° |
| 2026-04-17 09:42 | 47.65714 | -3.04868 | 26925 ft | 475 kts | 127° |
| 2026-04-17 09:43 | 47.63912 | -3.00764 | 27144 ft | 476 kts | 127° |
| 2026-04-17 09:43 | 47.62099 | -2.96639 | 27363 ft | 477 kts | 127° |
| 2026-04-17 09:43 | 47.60282 | -2.92514 | 27564 ft | 478 kts | 127° |
| 2026-04-17 09:43 | 47.58492 | -2.88375 | 27884 ft | 478 kts | 123° |
| 2026-04-17 09:44 | 47.56979 | -2.83973 | 28187 ft | 480 kts | 119° |
| 2026-04-17 09:44 | 47.55535 | -2.79527 | 28497 ft | 479 kts | 119° |
| 2026-04-17 09:44 | 47.54094 | -2.75088 | 28789 ft | 478 kts | 119° |
| 2026-04-17 09:44 | 47.52650 | -2.70653 | 29091 ft | 477 kts | 119° |
| 2026-04-17 09:45 | 47.51208 | -2.66243 | 29391 ft | 476 kts | 120° |
| 2026-04-17 09:45 | 47.49760 | -2.61835 | 29699 ft | 475 kts | 120° |
| 2026-04-17 09:45 | 47.48333 | -2.57501 | 30004 ft | 474 kts | 120° |
| 2026-04-17 09:45 | 47.46889 | -2.53126 | 30309 ft | 473 kts | 120° |
| 2026-04-17 09:46 | 47.45444 | -2.48755 | 30554 ft | 472 kts | 119° |
| 2026-04-17 09:46 | 47.44002 | -2.44398 | 30810 ft | 472 kts | 119° |
| 2026-04-17 09:46 | 47.42560 | -2.40040 | 31060 ft | 472 kts | 119° |
| 2026-04-17 09:46 | 47.41118 | -2.35687 | 31307 ft | 471 kts | 119° |
| 2026-04-17 09:47 | 47.39679 | -2.31352 | 31556 ft | 471 kts | 119° |
| 2026-04-17 09:47 | 47.38232 | -2.27002 | 31807 ft | 470 kts | 119° |
| 2026-04-17 09:47 | 47.36787 | -2.22670 | 32053 ft | 470 kts | 120° |
| 2026-04-17 09:47 | 47.35342 | -2.18342 | 32265 ft | 470 kts | 119° |
| 2026-04-17 09:48 | 47.33897 | -2.14014 | 32503 ft | 470 kts | 119° |
| 2026-04-17 09:48 | 47.32451 | -2.09691 | 32744 ft | 470 kts | 119° |
| 2026-04-17 09:48 | 47.31022 | -2.05428 | 32976 ft | 469 kts | 119° |
| 2026-04-17 09:48 | 47.29573 | -2.01110 | 33225 ft | 469 kts | 119° |
| 2026-04-17 09:49 | 47.28131 | -1.96810 | 33471 ft | 468 kts | 119° |
| 2026-04-17 09:49 | 47.26689 | -1.92514 | 33718 ft | 467 kts | 119° |
| 2026-04-17 09:49 | 47.25241 | -1.88220 | 33975 ft | 467 kts | 119° |
| 2026-04-17 09:49 | 47.23795 | -1.83951 | 34218 ft | 466 kts | 119° |
| 2026-04-17 09:50 | 47.22346 | -1.79689 | 34426 ft | 466 kts | 119° |
| 2026-04-17 09:50 | 47.20898 | -1.75426 | 34631 ft | 465 kts | 119° |
| 2026-04-17 09:50 | 47.19447 | -1.71166 | 34839 ft | 465 kts | 119° |
| 2026-04-17 09:50 | 47.18015 | -1.66969 | 35037 ft | 465 kts | 119° |
| 2026-04-17 09:51 | 47.16408 | -1.62867 | 35167 ft | 462 kts | 128° |
| 2026-04-17 09:51 | 47.14399 | -1.59194 | 35220 ft | 461 kts | 136° |
| 2026-04-17 09:51 | 47.09670 | -1.52850 | 35209 ft | 461 kts | 141° |
| 2026-04-17 09:52 | 47.05662 | -1.47595 | 35209 ft | 461 kts | 141° |
| 2026-04-17 09:52 | 47.00880 | -1.41304 | 35211 ft | 461 kts | 141° |
| 2026-04-17 09:53 | 46.96134 | -1.35064 | 35209 ft | 461 kts | 141° |
| 2026-04-17 09:53 | 46.91347 | -1.28806 | 35203 ft | 462 kts | 141° |
| 2026-04-17 09:54 | 46.86540 | -1.22552 | 35203 ft | 462 kts | 141° |
| 2026-04-17 09:54 | 46.81737 | -1.16306 | 35201 ft | 462 kts | 141° |
| 2026-04-17 09:55 | 46.76932 | -1.10066 | 35202 ft | 462 kts | 141° |
| 2026-04-17 09:55 | 46.72113 | -1.03841 | 35202 ft | 462 kts | 141° |
| 2026-04-17 09:56 | 46.67295 | -0.97651 | 35200 ft | 462 kts | 141° |
| 2026-04-17 09:56 | 46.62643 | -0.91271 | 35191 ft | 465 kts | 131° |
| 2026-04-17 09:57 | 46.59424 | -0.83047 | 35189 ft | 470 kts | 110° |
| 2026-04-17 09:57 | 46.58609 | -0.78445 | 35181 ft | 471 kts | 99° |
| 2026-04-17 09:57 | 46.58348 | -0.73699 | 35181 ft | 472 kts | 90° |
| 2026-04-17 09:58 | 46.58360 | -0.64207 | 35184 ft | 473 kts | 90° |
| 2026-04-17 09:58 | 46.58356 | -0.54635 | 35185 ft | 473 kts | 90° |
| 2026-04-17 09:59 | 46.58338 | -0.45046 | 35187 ft | 473 kts | 91° |
| 2026-04-17 09:59 | 46.58225 | -0.35474 | 35189 ft | 474 kts | 92° |
| 2026-04-17 10:00 | 46.58037 | -0.25908 | 35190 ft | 474 kts | 92° |
| 2026-04-17 10:00 | 46.57949 | -0.16384 | 35193 ft | 474 kts | 90° |
| 2026-04-17 10:01 | 46.58018 | -0.06800 | 35195 ft | 474 kts | 90° |
| 2026-04-17 10:01 | 46.58089 | 0.02789 | 35203 ft | 474 kts | 90° |
| 2026-04-17 10:02 | 46.58117 | 0.12377 | 35209 ft | 474 kts | 90° |
| 2026-04-17 10:02 | 46.58118 | 0.21985 | 35212 ft | 475 kts | 90° |
| 2026-04-17 10:03 | 46.57964 | 0.31574 | 35211 ft | 474 kts | 98° |
| 2026-04-17 10:03 | 46.57150 | 0.41019 | 35213 ft | 474 kts | 97° |
| 2026-04-17 10:04 | 46.56328 | 0.50539 | 35199 ft | 475 kts | 98° |
| 2026-04-17 10:04 | 46.55500 | 0.60066 | 35198 ft | 475 kts | 98° |
| 2026-04-17 10:05 | 46.54652 | 0.69625 | 35201 ft | 476 kts | 98° |
| 2026-04-17 10:05 | 46.53791 | 0.79162 | 35202 ft | 476 kts | 98° |
| 2026-04-17 10:06 | 46.52944 | 0.88655 | 35208 ft | 476 kts | 98° |
| 2026-04-17 10:06 | 46.52089 | 0.98199 | 35215 ft | 476 kts | 98° |
| 2026-04-17 10:07 | 46.51217 | 1.07724 | 35211 ft | 476 kts | 98° |
| 2026-04-17 10:07 | 46.50322 | 1.17265 | 35212 ft | 476 kts | 98° |
| 2026-04-17 10:08 | 46.49419 | 1.26795 | 35210 ft | 477 kts | 98° |
| 2026-04-17 10:08 | 46.48519 | 1.36278 | 35211 ft | 477 kts | 98° |
| 2026-04-17 10:09 | 46.47598 | 1.45809 | 35213 ft | 477 kts | 98° |
| 2026-04-17 10:09 | 46.46684 | 1.55361 | 35209 ft | 477 kts | 98° |
| 2026-04-17 10:10 | 46.45767 | 1.64910 | 35211 ft | 478 kts | 98° |
| 2026-04-17 10:11 | 46.44380 | 1.79164 | 35212 ft | 478 kts | 98° |
| 2026-04-17 10:11 | 46.43440 | 1.88703 | 35213 ft | 478 kts | 98° |
| 2026-04-17 10:12 | 46.42486 | 1.98234 | 35216 ft | 478 kts | 98° |
| 2026-04-17 10:12 | 46.41525 | 2.07783 | 35218 ft | 478 kts | 98° |
| 2026-04-17 10:13 | 46.40562 | 2.17321 | 35219 ft | 477 kts | 98° |
| 2026-04-17 10:13 | 46.39590 | 2.26834 | 35222 ft | 477 kts | 98° |
| 2026-04-17 10:14 | 46.38615 | 2.36286 | 35228 ft | 477 kts | 99° |
| 2026-04-17 10:14 | 46.37625 | 2.45793 | 35218 ft | 477 kts | 99° |
| 2026-04-17 10:15 | 46.36612 | 2.55271 | 35227 ft | 476 kts | 103° |
| 2026-04-17 10:15 | 46.34413 | 2.64252 | 35217 ft | 473 kts | 120° |
| 2026-04-17 10:16 | 46.30699 | 2.72073 | 35211 ft | 471 kts | 128° |
| 2026-04-17 10:16 | 46.26823 | 2.79705 | 35213 ft | 471 kts | 128° |
| 2026-04-17 10:17 | 46.22950 | 2.87349 | 35215 ft | 471 kts | 128° |
| 2026-04-17 10:17 | 46.19109 | 2.94941 | 35216 ft | 471 kts | 128° |
| 2026-04-17 10:18 | 46.15243 | 3.02570 | 35221 ft | 471 kts | 128° |
| 2026-04-17 10:18 | 46.11364 | 3.10190 | 35210 ft | 471 kts | 128° |
| 2026-04-17 10:19 | 46.07477 | 3.17799 | 35220 ft | 472 kts | 128° |
| 2026-04-17 10:19 | 46.03586 | 3.25415 | 35217 ft | 473 kts | 128° |
| 2026-04-17 10:20 | 45.99686 | 3.33036 | 35224 ft | 473 kts | 128° |
| 2026-04-17 10:20 | 45.95768 | 3.40656 | 35224 ft | 474 kts | 128° |
| 2026-04-17 10:21 | 45.91842 | 3.48268 | 35219 ft | 474 kts | 128° |
| 2026-04-17 10:21 | 45.87601 | 3.55469 | 35205 ft | 471 kts | 141° |
| 2026-04-17 10:22 | 45.86801 | 3.56469 | 35205 ft | 470 kts | 143° |
| 2026-04-17 10:22 | 45.76652 | 3.66279 | 35198 ft | 469 kts | 149° |
| 2026-04-17 10:23 | 45.71208 | 3.71418 | 35191 ft | 469 kts | 149° |
| 2026-04-17 10:23 | 45.65754 | 3.76573 | 35196 ft | 470 kts | 149° |
| 2026-04-17 10:24 | 45.60286 | 3.81719 | 35195 ft | 471 kts | 149° |
| 2026-04-17 10:24 | 45.55735 | 3.85987 | 35199 ft | 471 kts | 149° |
| 2026-04-17 10:25 | 45.50242 | 3.91128 | 35188 ft | 472 kts | 149° |
| 2026-04-17 10:25 | 45.44746 | 3.96265 | 35192 ft | 472 kts | 149° |
| 2026-04-17 10:26 | 45.39242 | 4.01400 | 35193 ft | 473 kts | 149° |
| 2026-04-17 10:26 | 45.33731 | 4.06520 | 35195 ft | 473 kts | 149° |
| 2026-04-17 10:27 | 45.28216 | 4.11632 | 35187 ft | 474 kts | 149° |
| 2026-04-17 10:27 | 45.22689 | 4.16752 | 35205 ft | 474 kts | 149° |
| 2026-04-17 10:28 | 45.17159 | 4.21864 | 35205 ft | 474 kts | 149° |
| 2026-04-17 10:28 | 45.11668 | 4.26919 | 35200 ft | 474 kts | 149° |
| 2026-04-17 10:29 | 45.06132 | 4.32001 | 35191 ft | 474 kts | 149° |
| 2026-04-17 10:29 | 45.00595 | 4.37075 | 35199 ft | 474 kts | 149° |
| 2026-04-17 10:30 | 44.95054 | 4.42145 | 35194 ft | 474 kts | 149° |
| 2026-04-17 10:30 | 44.89520 | 4.47196 | 35173 ft | 474 kts | 149° |
| 2026-04-17 10:31 | 44.83975 | 4.52236 | 35178 ft | 474 kts | 149° |
| 2026-04-17 10:31 | 44.78433 | 4.57267 | 35184 ft | 474 kts | 149° |
| 2026-04-17 10:32 | 44.72884 | 4.62295 | 35179 ft | 475 kts | 149° |
| 2026-04-17 10:32 | 44.67334 | 4.67320 | 35173 ft | 475 kts | 149° |
| 2026-04-17 10:33 | 44.61812 | 4.72310 | 35176 ft | 475 kts | 148° |
| 2026-04-17 10:33 | 44.56950 | 4.78557 | 35166 ft | 477 kts | 128° |
| 2026-04-17 10:34 | 44.53760 | 4.86698 | 35160 ft | 478 kts | 108° |
| 2026-04-17 10:34 | 44.51918 | 4.95644 | 35157 ft | 478 kts | 105° |
| 2026-04-17 10:35 | 44.50077 | 5.04587 | 35142 ft | 477 kts | 105° |
| 2026-04-17 10:35 | 44.48219 | 5.13521 | 35148 ft | 478 kts | 105° |
| 2026-04-17 10:36 | 44.46372 | 5.22413 | 35147 ft | 478 kts | 105° |
| 2026-04-17 10:36 | 44.44519 | 5.31349 | 35149 ft | 478 kts | 105° |
| 2026-04-17 10:37 | 44.42654 | 5.40283 | 35154 ft | 478 kts | 105° |
| 2026-04-17 10:37 | 44.40770 | 5.49221 | 35150 ft | 478 kts | 105° |
| 2026-04-17 10:38 | 44.38876 | 5.58145 | 35163 ft | 479 kts | 107° |
| 2026-04-17 10:38 | 44.36050 | 5.66537 | 35157 ft | 478 kts | 123° |
| 2026-04-17 10:39 | 44.32381 | 5.74306 | 35158 ft | 479 kts | 123° |
| 2026-04-17 10:39 | 44.28714 | 5.82070 | 35159 ft | 479 kts | 123° |
| 2026-04-17 10:40 | 44.25055 | 5.89834 | 35138 ft | 478 kts | 123° |
| 2026-04-17 10:40 | 44.21392 | 5.97580 | 35142 ft | 478 kts | 123° |
| 2026-04-17 10:41 | 44.17720 | 6.05312 | 35147 ft | 478 kts | 123° |
| 2026-04-17 10:41 | 44.14030 | 6.13029 | 35165 ft | 478 kts | 124° |
| 2026-04-17 10:42 | 44.10241 | 6.20567 | 35159 ft | 478 kts | 125° |
| 2026-04-17 10:42 | 44.06359 | 6.28096 | 35163 ft | 478 kts | 125° |
| 2026-04-17 10:43 | 44.02494 | 6.35631 | 35160 ft | 478 kts | 125° |
| 2026-04-17 10:43 | 43.98654 | 6.43185 | 35164 ft | 479 kts | 125° |
| 2026-04-17 10:44 | 43.94809 | 6.50733 | 35168 ft | 479 kts | 124° |
| 2026-04-17 10:44 | 43.90950 | 6.58262 | 35170 ft | 479 kts | 125° |
| 2026-04-17 10:45 | 43.86964 | 6.65650 | 35165 ft | 479 kts | 132° |
| 2026-04-17 10:45 | 43.81975 | 6.71729 | 35157 ft | 478 kts | 141° |
| 2026-04-17 10:46 | 43.76781 | 6.77499 | 35150 ft | 479 kts | 141° |
| 2026-04-17 10:46 | 43.71589 | 6.83265 | 35146 ft | 479 kts | 141° |
| 2026-04-17 10:47 | 43.66390 | 6.89018 | 35152 ft | 479 kts | 141° |
| 2026-04-17 10:47 | 43.61190 | 6.94771 | 35148 ft | 479 kts | 141° |
| 2026-04-17 10:48 | 43.56026 | 7.00470 | 35148 ft | 478 kts | 141° |
| 2026-04-17 10:48 | 43.50814 | 7.06195 | 35148 ft | 478 kts | 141° |
| 2026-04-17 10:49 | 43.46080 | 7.12584 | 35148 ft | 477 kts | 126° |
| 2026-04-17 10:49 | 43.42050 | 7.19828 | 35144 ft | 477 kts | 127° |
| 2026-04-17 10:50 | 43.37985 | 7.27045 | 35138 ft | 477 kts | 127° |
| 2026-04-17 10:50 | 43.34243 | 7.34454 | 35139 ft | 474 kts | 115° |
| 2026-04-17 10:51 | 43.32132 | 7.42944 | 35140 ft | 468 kts | 97° |
| 2026-04-17 10:51 | 43.31242 | 7.51782 | 35142 ft | 467 kts | 95° |
| 2026-04-17 10:52 | 43.30192 | 7.60594 | 35138 ft | 470 kts | 103° |
| 2026-04-17 10:52 | 43.27635 | 7.68854 | 35133 ft | 473 kts | 116° |
| 2026-04-17 10:53 | 43.24563 | 7.76853 | 35137 ft | 474 kts | 116° |
| 2026-04-17 10:53 | 43.21517 | 7.84861 | 35143 ft | 474 kts | 116° |
| 2026-04-17 10:54 | 43.18459 | 7.92862 | 35140 ft | 474 kts | 116° |
| 2026-04-17 10:54 | 43.15406 | 8.00801 | 35141 ft | 473 kts | 116° |
| 2026-04-17 10:55 | 43.12327 | 8.08777 | 35143 ft | 473 kts | 116° |
| 2026-04-17 10:55 | 43.09247 | 8.16719 | 35144 ft | 472 kts | 116° |
| 2026-04-17 10:56 | 43.06175 | 8.24660 | 35158 ft | 472 kts | 116° |
| 2026-04-17 10:56 | 43.03102 | 8.32590 | 35149 ft | 472 kts | 116° |
| 2026-04-17 10:57 | 43.00784 | 8.40897 | 35147 ft | 467 kts | 99° |
| 2026-04-17 10:57 | 42.99549 | 8.49597 | 35138 ft | 466 kts | 98° |
| 2026-04-17 10:58 | 42.98323 | 8.58232 | 35136 ft | 466 kts | 98° |
| 2026-04-17 10:58 | 42.97079 | 8.66921 | 35135 ft | 466 kts | 98° |
| 2026-04-17 10:59 | 42.95821 | 8.75611 | 35144 ft | 467 kts | 99° |
| 2026-04-17 10:59 | 42.94577 | 8.84324 | 35139 ft | 467 kts | 98° |
| 2026-04-17 11:00 | 42.93446 | 8.93048 | 35138 ft | 467 kts | 97° |
| 2026-04-17 11:00 | 42.92328 | 9.01775 | 35141 ft | 467 kts | 97° |
| 2026-04-17 11:01 | 42.91164 | 9.10501 | 35156 ft | 467 kts | 98° |
| 2026-04-17 11:01 | 42.89971 | 9.19211 | 35155 ft | 467 kts | 98° |
| 2026-04-17 11:02 | 42.88774 | 9.27924 | 35150 ft | 467 kts | 98° |
| 2026-04-17 11:02 | 42.87581 | 9.36630 | 35149 ft | 467 kts | 98° |
| 2026-04-17 11:03 | 42.86398 | 9.45328 | 35146 ft | 466 kts | 98° |
| 2026-04-17 11:03 | 42.85407 | 9.52552 | 35153 ft | 466 kts | 98° |